EWG8A EDDH-EDDS
Flight info
| Callsign | EWG8A |
|---|---|
| Flight time | 1h 1m |
| Altitude | 35000 |
| Route | IDEKO7G/33 IDEKO N850 NIE DCT BERXO DCT SILWE DCT OSBIT P605 TOSTU T726 LBU |
| Aircraft | A319/M-SDE3FGHIJ1RWY/LB1 |
Departure
| Time | 2026-05-04 17:43 |
|---|---|
| Airport | Hamburg Helmut Schmidt Airport (EDDH) |
Arrival
| Time | 2026-05-04 18:44 |
|---|---|
| Airport | Stuttgart Airport (EDDS) |
| Time | Latitude | Longitude | Altitude | Speed | Heading |
|---|---|---|---|---|---|
| 2026-05-04 16:51 | 53.63112 | 10.00377 | 46 ft | 0 kts | 87° |
| 2026-05-04 16:52 | 53.63206 | 10.00371 | 49 ft | 0 kts | 86° |
| 2026-05-04 17:35 | 53.63206 | 10.00365 | 48 ft | 3 kts | 86° |
| 2026-05-04 17:36 | 53.63204 | 10.00323 | 48 ft | 2 kts | 86° |
| 2026-05-04 17:36 | 53.63204 | 10.00284 | 48 ft | 4 kts | 103° |
| 2026-05-04 17:36 | 53.63214 | 10.00250 | 42 ft | 4 kts | 158° |
| 2026-05-04 17:36 | 53.63223 | 10.00246 | 43 ft | 0 kts | 176° |
| 2026-05-04 17:39 | 53.63217 | 10.00247 | 48 ft | 4 kts | 176° |
| 2026-05-04 17:40 | 53.63168 | 10.00252 | 48 ft | 9 kts | 176° |
| 2026-05-04 17:40 | 53.63094 | 10.00261 | 48 ft | 12 kts | 176° |
| 2026-05-04 17:40 | 53.63027 | 10.00218 | 48 ft | 12 kts | 213° |
| 2026-05-04 17:40 | 53.62954 | 10.00139 | 48 ft | 11 kts | 213° |
| 2026-05-04 17:41 | 53.62882 | 10.00057 | 48 ft | 12 kts | 219° |
| 2026-05-04 17:41 | 53.62840 | 9.99950 | 48 ft | 14 kts | 242° |
| 2026-05-04 17:41 | 53.62808 | 9.99824 | 43 ft | 9 kts | 265° |
| 2026-05-04 17:41 | 53.62837 | 9.99773 | 45 ft | 0 kts | 333° |
| 2026-05-04 17:42 | 53.62930 | 9.99693 | 44 ft | 44 kts | 333° |
| 2026-05-04 17:42 | 53.63400 | 9.99285 | 47 ft | 106 kts | 333° |
| 2026-05-04 17:43 | 53.64214 | 9.98579 | 109 ft | 148 kts | 331° |
| 2026-05-04 17:43 | 53.65101 | 9.97821 | 675 ft | 142 kts | 330° |
| 2026-05-04 17:43 | 53.65982 | 9.97073 | 1211 ft | 143 kts | 332° |
| 2026-05-04 17:43 | 53.66918 | 9.96275 | 1529 ft | 163 kts | 331° |
| 2026-05-04 17:44 | 53.67997 | 9.95346 | 1865 ft | 186 kts | 331° |
| 2026-05-04 17:44 | 53.69220 | 9.94291 | 2236 ft | 209 kts | 331° |
| 2026-05-04 17:44 | 53.70525 | 9.93139 | 3094 ft | 212 kts | 326° |
| 2026-05-04 17:44 | 53.71448 | 9.91271 | 3914 ft | 212 kts | 285° |
| 2026-05-04 17:45 | 53.71449 | 9.88700 | 4436 ft | 235 kts | 257° |
| 2026-05-04 17:45 | 53.70969 | 9.85950 | 5105 ft | 251 kts | 251° |
| 2026-05-04 17:45 | 53.70379 | 9.83144 | 6082 ft | 255 kts | 250° |
| 2026-05-04 17:45 | 53.69769 | 9.80327 | 7066 ft | 257 kts | 250° |
| 2026-05-04 17:46 | 53.69160 | 9.77464 | 8003 ft | 261 kts | 251° |
| 2026-05-04 17:46 | 53.68558 | 9.74560 | 8936 ft | 264 kts | 251° |
| 2026-05-04 17:46 | 53.67761 | 9.71753 | 9848 ft | 270 kts | 234° |
| 2026-05-04 17:46 | 53.66329 | 9.69665 | 10534 ft | 284 kts | 211° |
| 2026-05-04 17:47 | 53.64354 | 9.68607 | 10812 ft | 311 kts | 195° |
| 2026-05-04 17:47 | 53.62190 | 9.67818 | 11366 ft | 323 kts | 194° |
| 2026-05-04 17:47 | 53.59981 | 9.67044 | 12085 ft | 328 kts | 194° |
| 2026-05-04 17:47 | 53.57722 | 9.66252 | 12822 ft | 333 kts | 194° |
| 2026-05-04 17:48 | 53.55439 | 9.65439 | 13564 ft | 337 kts | 195° |
| 2026-05-04 17:48 | 53.53136 | 9.64602 | 14246 ft | 341 kts | 195° |
| 2026-05-04 17:48 | 53.50804 | 9.63743 | 14917 ft | 344 kts | 195° |
| 2026-05-04 17:48 | 53.48455 | 9.62877 | 15603 ft | 347 kts | 195° |
| 2026-05-04 17:49 | 53.46116 | 9.62016 | 16270 ft | 350 kts | 195° |
| 2026-05-04 17:49 | 53.43691 | 9.61123 | 16946 ft | 353 kts | 196° |
| 2026-05-04 17:49 | 53.41315 | 9.60248 | 17616 ft | 356 kts | 196° |
| 2026-05-04 17:49 | 53.38885 | 9.59355 | 18281 ft | 360 kts | 196° |
| 2026-05-04 17:50 | 53.36430 | 9.58456 | 18862 ft | 362 kts | 196° |
| 2026-05-04 17:50 | 53.33957 | 9.57554 | 19428 ft | 366 kts | 195° |
| 2026-05-04 17:50 | 53.31464 | 9.56644 | 20029 ft | 368 kts | 195° |
| 2026-05-04 17:50 | 53.28955 | 9.55729 | 20660 ft | 369 kts | 195° |
| 2026-05-04 17:51 | 53.26438 | 9.54815 | 21287 ft | 371 kts | 195° |
| 2026-05-04 17:51 | 53.23912 | 9.53899 | 21902 ft | 372 kts | 195° |
| 2026-05-04 17:51 | 53.21375 | 9.52978 | 22507 ft | 374 kts | 195° |
| 2026-05-04 17:51 | 53.18832 | 9.52057 | 23088 ft | 375 kts | 195° |
| 2026-05-04 17:52 | 53.16275 | 9.51132 | 23628 ft | 377 kts | 195° |
| 2026-05-04 17:52 | 53.13711 | 9.50205 | 24079 ft | 378 kts | 195° |
| 2026-05-04 17:52 | 53.11132 | 9.49275 | 24530 ft | 380 kts | 195° |
| 2026-05-04 17:52 | 53.08540 | 9.48341 | 24985 ft | 381 kts | 196° |
| 2026-05-04 17:53 | 53.05942 | 9.47408 | 25407 ft | 383 kts | 196° |
| 2026-05-04 17:53 | 53.03333 | 9.46473 | 25838 ft | 384 kts | 196° |
| 2026-05-04 17:53 | 53.00714 | 9.45532 | 26267 ft | 386 kts | 196° |
| 2026-05-04 17:53 | 52.98074 | 9.44647 | 26683 ft | 389 kts | 194° |
| 2026-05-04 17:54 | 52.95393 | 9.43951 | 27093 ft | 392 kts | 192° |
| 2026-05-04 17:54 | 52.92676 | 9.43382 | 27506 ft | 394 kts | 191° |
| 2026-05-04 17:54 | 52.89948 | 9.42872 | 27920 ft | 396 kts | 191° |
| 2026-05-04 17:54 | 52.87202 | 9.42367 | 28307 ft | 398 kts | 191° |
| 2026-05-04 17:55 | 52.84444 | 9.41840 | 28727 ft | 399 kts | 192° |
| 2026-05-04 17:55 | 52.81685 | 9.41287 | 29128 ft | 401 kts | 192° |
| 2026-05-04 17:55 | 52.78912 | 9.40707 | 29517 ft | 402 kts | 192° |
| 2026-05-04 17:55 | 52.76132 | 9.40112 | 29896 ft | 404 kts | 192° |
| 2026-05-04 17:56 | 52.73331 | 9.39508 | 30227 ft | 406 kts | 192° |
| 2026-05-04 17:56 | 52.70528 | 9.38903 | 30530 ft | 408 kts | 192° |
| 2026-05-04 17:56 | 52.67706 | 9.38300 | 30823 ft | 410 kts | 192° |
| 2026-05-04 17:56 | 52.64860 | 9.37730 | 31108 ft | 414 kts | 189° |
| 2026-05-04 17:57 | 52.61955 | 9.37735 | 31370 ft | 422 kts | 180° |
| 2026-05-04 17:57 | 52.59029 | 9.38538 | 31651 ft | 430 kts | 173° |
| 2026-05-04 17:57 | 52.56112 | 9.39644 | 32034 ft | 430 kts | 173° |
| 2026-05-04 17:57 | 52.53207 | 9.40741 | 32431 ft | 429 kts | 173° |
| 2026-05-04 17:58 | 52.50300 | 9.41831 | 32822 ft | 428 kts | 173° |
| 2026-05-04 17:58 | 52.47434 | 9.42899 | 33220 ft | 427 kts | 173° |
| 2026-05-04 17:58 | 52.44533 | 9.43976 | 33633 ft | 427 kts | 174° |
| 2026-05-04 17:58 | 52.41642 | 9.45049 | 34039 ft | 426 kts | 174° |
| 2026-05-04 17:59 | 52.38745 | 9.46127 | 34382 ft | 426 kts | 173° |
| 2026-05-04 17:59 | 52.35846 | 9.47204 | 34702 ft | 427 kts | 173° |
| 2026-05-04 17:59 | 52.30059 | 9.49351 | 34952 ft | 424 kts | 173° |
| 2026-05-04 18:00 | 52.27194 | 9.50417 | 34953 ft | 422 kts | 173° |
| 2026-05-04 18:00 | 52.21478 | 9.52532 | 34968 ft | 421 kts | 173° |
| 2026-05-04 18:01 | 52.15771 | 9.54635 | 34976 ft | 420 kts | 173° |
| 2026-05-04 18:01 | 52.10074 | 9.56726 | 34975 ft | 419 kts | 173° |
| 2026-05-04 18:02 | 52.01542 | 9.59853 | 34972 ft | 418 kts | 173° |
| 2026-05-04 18:02 | 51.95862 | 9.61917 | 34981 ft | 418 kts | 173° |
| 2026-05-04 18:03 | 51.90216 | 9.63965 | 34980 ft | 418 kts | 173° |
| 2026-05-04 18:03 | 51.84502 | 9.66041 | 34974 ft | 418 kts | 173° |
| 2026-05-04 18:04 | 51.78871 | 9.68089 | 34981 ft | 417 kts | 173° |
| 2026-05-04 18:05 | 51.70379 | 9.71159 | 34972 ft | 417 kts | 173° |
| 2026-05-04 18:05 | 51.64714 | 9.73197 | 34969 ft | 418 kts | 173° |
| 2026-05-04 18:06 | 51.56185 | 9.76253 | 34973 ft | 419 kts | 173° |
| 2026-05-04 18:06 | 51.50499 | 9.78287 | 34976 ft | 419 kts | 173° |
| 2026-05-04 18:07 | 51.44814 | 9.80314 | 34979 ft | 419 kts | 173° |
| 2026-05-04 18:07 | 51.39129 | 9.82347 | 34959 ft | 419 kts | 172° |
| 2026-05-04 18:08 | 51.33437 | 9.84369 | 34964 ft | 419 kts | 173° |
| 2026-05-04 18:08 | 51.27743 | 9.86373 | 34966 ft | 419 kts | 173° |
| 2026-05-04 18:09 | 51.16340 | 9.87692 | 34971 ft | 409 kts | 187° |
| 2026-05-04 18:10 | 51.10696 | 9.87184 | 34954 ft | 409 kts | 187° |
| 2026-05-04 18:10 | 51.05015 | 9.86684 | 34960 ft | 409 kts | 187° |
| 2026-05-04 18:11 | 50.99331 | 9.86186 | 34966 ft | 409 kts | 187° |
| 2026-05-04 18:11 | 50.93655 | 9.85696 | 34968 ft | 409 kts | 187° |
| 2026-05-04 18:12 | 50.87968 | 9.85214 | 34963 ft | 409 kts | 187° |
| 2026-05-04 18:12 | 50.82293 | 9.84718 | 34966 ft | 408 kts | 187° |
| 2026-05-04 18:13 | 50.76614 | 9.84215 | 34968 ft | 408 kts | 187° |
| 2026-05-04 18:13 | 50.70926 | 9.83728 | 34684 ft | 409 kts | 187° |
| 2026-05-04 18:14 | 50.68083 | 9.83491 | 34433 ft | 409 kts | 187° |
| 2026-05-04 18:14 | 50.65239 | 9.83250 | 34175 ft | 409 kts | 187° |
| 2026-05-04 18:14 | 50.62391 | 9.83007 | 33925 ft | 411 kts | 187° |
| 2026-05-04 18:15 | 50.56727 | 9.82523 | 33180 ft | 403 kts | 187° |
| 2026-05-04 18:15 | 50.51170 | 9.82045 | 32262 ft | 396 kts | 187° |
| 2026-05-04 18:15 | 50.48437 | 9.81815 | 31822 ft | 392 kts | 187° |
| 2026-05-04 18:16 | 50.45724 | 9.81589 | 31376 ft | 388 kts | 187° |
| 2026-05-04 18:16 | 50.43035 | 9.81364 | 30944 ft | 385 kts | 187° |
| 2026-05-04 18:16 | 50.40371 | 9.81137 | 30507 ft | 382 kts | 187° |
| 2026-05-04 18:17 | 50.35111 | 9.80680 | 29589 ft | 376 kts | 187° |
| 2026-05-04 18:17 | 50.32511 | 9.80455 | 29132 ft | 372 kts | 187° |
| 2026-05-04 18:17 | 50.27384 | 9.80022 | 28259 ft | 367 kts | 187° |
| 2026-05-04 18:18 | 50.24842 | 9.79808 | 27795 ft | 365 kts | 187° |
| 2026-05-04 18:18 | 50.22318 | 9.79598 | 27412 ft | 362 kts | 186° |
| 2026-05-04 18:18 | 50.19810 | 9.79388 | 27014 ft | 360 kts | 186° |
| 2026-05-04 18:18 | 50.17323 | 9.79175 | 26619 ft | 357 kts | 186° |
| 2026-05-04 18:19 | 50.12393 | 9.78754 | 25849 ft | 352 kts | 186° |
| 2026-05-04 18:19 | 50.09954 | 9.78551 | 25450 ft | 349 kts | 186° |
| 2026-05-04 18:19 | 50.07538 | 9.78354 | 25077 ft | 348 kts | 185° |
| 2026-05-04 18:20 | 50.05062 | 9.78428 | 24951 ft | 360 kts | 180° |
| 2026-05-04 18:20 | 50.02528 | 9.78591 | 24975 ft | 372 kts | 180° |
| 2026-05-04 18:20 | 49.99892 | 9.78756 | 24972 ft | 385 kts | 180° |
| 2026-05-04 18:20 | 49.97193 | 9.78928 | 24975 ft | 390 kts | 180° |
| 2026-05-04 18:21 | 49.95394 | 9.79045 | 24975 ft | 391 kts | 180° |
| 2026-05-04 18:21 | 49.92672 | 9.79226 | 24975 ft | 392 kts | 180° |
| 2026-05-04 18:21 | 49.89950 | 9.79400 | 24978 ft | 392 kts | 180° |
| 2026-05-04 18:21 | 49.87228 | 9.79570 | 24977 ft | 392 kts | 180° |
| 2026-05-04 18:22 | 49.83619 | 9.79798 | 24973 ft | 392 kts | 180° |
| 2026-05-04 18:22 | 49.80898 | 9.79973 | 24975 ft | 392 kts | 180° |
| 2026-05-04 18:22 | 49.79062 | 9.80091 | 24972 ft | 388 kts | 180° |
| 2026-05-04 18:22 | 49.76411 | 9.80266 | 24859 ft | 376 kts | 180° |
| 2026-05-04 18:23 | 49.73865 | 9.80433 | 24714 ft | 366 kts | 180° |
| 2026-05-04 18:23 | 49.71307 | 9.80599 | 24406 ft | 360 kts | 180° |
| 2026-05-04 18:23 | 49.68813 | 9.80744 | 24023 ft | 357 kts | 180° |
| 2026-05-04 18:23 | 49.66369 | 9.80862 | 23626 ft | 355 kts | 180° |
| 2026-05-04 18:24 | 49.63874 | 9.80969 | 23141 ft | 353 kts | 180° |
| 2026-05-04 18:24 | 49.61430 | 9.80992 | 22647 ft | 349 kts | 187° |
| 2026-05-04 18:24 | 49.59099 | 9.80110 | 22161 ft | 343 kts | 204° |
| 2026-05-04 18:24 | 49.56916 | 9.78641 | 21659 ft | 342 kts | 205° |
| 2026-05-04 18:25 | 49.54748 | 9.77151 | 21169 ft | 340 kts | 205° |
| 2026-05-04 18:25 | 49.52600 | 9.75665 | 20714 ft | 338 kts | 205° |
| 2026-05-04 18:25 | 49.50466 | 9.74187 | 20254 ft | 336 kts | 205° |
| 2026-05-04 18:25 | 49.48343 | 9.72719 | 19994 ft | 335 kts | 205° |
| 2026-05-04 18:26 | 49.46213 | 9.71249 | 19971 ft | 336 kts | 205° |
| 2026-05-04 18:26 | 49.44080 | 9.69782 | 19976 ft | 336 kts | 205° |
| 2026-05-04 18:26 | 49.41940 | 9.68318 | 19976 ft | 337 kts | 205° |
| 2026-05-04 18:26 | 49.39796 | 9.66850 | 19976 ft | 337 kts | 205° |
| 2026-05-04 18:27 | 49.37657 | 9.65386 | 19976 ft | 337 kts | 205° |
| 2026-05-04 18:27 | 49.35520 | 9.63928 | 19978 ft | 337 kts | 205° |
| 2026-05-04 18:27 | 49.33409 | 9.62493 | 19975 ft | 336 kts | 205° |
| 2026-05-04 18:27 | 49.31276 | 9.61043 | 19976 ft | 335 kts | 205° |
| 2026-05-04 18:28 | 49.29144 | 9.59594 | 19979 ft | 335 kts | 205° |
| 2026-05-04 18:28 | 49.27015 | 9.58141 | 19967 ft | 334 kts | 205° |
| 2026-05-04 18:28 | 49.24906 | 9.56700 | 19591 ft | 331 kts | 205° |
| 2026-05-04 18:28 | 49.22776 | 9.55249 | 19149 ft | 330 kts | 204° |
| 2026-05-04 18:29 | 49.20709 | 9.53848 | 18720 ft | 329 kts | 204° |
| 2026-05-04 18:29 | 49.18622 | 9.52436 | 18285 ft | 327 kts | 204° |
| 2026-05-04 18:29 | 49.16550 | 9.51035 | 17805 ft | 325 kts | 204° |
| 2026-05-04 18:29 | 49.14487 | 9.49636 | 17332 ft | 323 kts | 204° |
| 2026-05-04 18:30 | 49.10403 | 9.46868 | 16446 ft | 318 kts | 204° |
| 2026-05-04 18:30 | 49.08384 | 9.45505 | 16012 ft | 316 kts | 204° |
| 2026-05-04 18:30 | 49.06378 | 9.44154 | 15591 ft | 315 kts | 204° |
| 2026-05-04 18:31 | 49.04380 | 9.42809 | 15171 ft | 313 kts | 204° |
| 2026-05-04 18:31 | 49.02394 | 9.41474 | 14761 ft | 312 kts | 204° |
| 2026-05-04 18:31 | 49.00415 | 9.40145 | 14367 ft | 310 kts | 204° |
| 2026-05-04 18:31 | 48.98441 | 9.38821 | 13980 ft | 309 kts | 204° |
| 2026-05-04 18:32 | 48.96480 | 9.37501 | 13570 ft | 308 kts | 204° |
| 2026-05-04 18:32 | 48.94527 | 9.36208 | 13154 ft | 305 kts | 201° |
| 2026-05-04 18:32 | 48.92479 | 9.35402 | 12754 ft | 304 kts | 188° |
| 2026-05-04 18:32 | 48.90373 | 9.35314 | 12348 ft | 302 kts | 175° |
| 2026-05-04 18:33 | 48.88319 | 9.35933 | 11965 ft | 301 kts | 163° |
| 2026-05-04 18:33 | 48.86374 | 9.37101 | 11587 ft | 300 kts | 159° |
| 2026-05-04 18:33 | 48.84559 | 9.38634 | 11216 ft | 300 kts | 143° |
| 2026-05-04 18:33 | 48.83168 | 9.40993 | 10850 ft | 302 kts | 124° |
| 2026-05-04 18:34 | 48.82387 | 9.43938 | 10492 ft | 305 kts | 104° |
| 2026-05-04 18:34 | 48.82311 | 9.47154 | 10123 ft | 308 kts | 84° |
| 2026-05-04 18:34 | 48.82839 | 9.50293 | 9874 ft | 304 kts | 76° |
| 2026-05-04 18:34 | 48.83414 | 9.53335 | 9660 ft | 296 kts | 77° |
| 2026-05-04 18:35 | 48.83969 | 9.56329 | 9337 ft | 293 kts | 77° |
| 2026-05-04 18:35 | 48.84515 | 9.59297 | 9001 ft | 291 kts | 77° |
| 2026-05-04 18:35 | 48.85057 | 9.62251 | 8654 ft | 290 kts | 77° |
| 2026-05-04 18:35 | 48.85597 | 9.65187 | 8307 ft | 288 kts | 77° |
| 2026-05-04 18:36 | 48.86121 | 9.68110 | 7970 ft | 285 kts | 79° |
| 2026-05-04 18:36 | 48.86135 | 9.71055 | 7647 ft | 277 kts | 106° |
| 2026-05-04 18:36 | 48.85277 | 9.73600 | 7307 ft | 271 kts | 133° |
| 2026-05-04 18:36 | 48.83778 | 9.75163 | 7039 ft | 264 kts | 161° |
| 2026-05-04 18:37 | 48.81954 | 9.75434 | 6732 ft | 262 kts | 189° |
| 2026-05-04 18:37 | 48.80304 | 9.74333 | 6389 ft | 263 kts | 217° |
| 2026-05-04 18:37 | 48.78959 | 9.72445 | 6038 ft | 264 kts | 224° |
| 2026-05-04 18:37 | 48.77944 | 9.70138 | 5660 ft | 267 kts | 250° |
| 2026-05-04 18:38 | 48.77427 | 9.67457 | 5412 ft | 263 kts | 255° |
| 2026-05-04 18:38 | 48.76953 | 9.64795 | 5159 ft | 259 kts | 255° |
| 2026-05-04 18:38 | 48.76477 | 9.62195 | 5022 ft | 252 kts | 253° |
| 2026-05-04 18:38 | 48.76012 | 9.59689 | 4896 ft | 243 kts | 253° |
| 2026-05-04 18:39 | 48.75561 | 9.57261 | 4772 ft | 234 kts | 253° |
| 2026-05-04 18:39 | 48.75127 | 9.54929 | 4644 ft | 227 kts | 254° |
| 2026-05-04 18:39 | 48.74709 | 9.52681 | 4516 ft | 216 kts | 254° |
| 2026-05-04 18:39 | 48.74310 | 9.50543 | 4396 ft | 205 kts | 254° |
| 2026-05-04 18:40 | 48.73943 | 9.48576 | 4326 ft | 188 kts | 254° |
| 2026-05-04 18:40 | 48.73602 | 9.46748 | 4160 ft | 174 kts | 255° |
| 2026-05-04 18:40 | 48.73285 | 9.45054 | 3964 ft | 161 kts | 255° |
| 2026-05-04 18:40 | 48.72985 | 9.43447 | 3765 ft | 154 kts | 256° |
| 2026-05-04 18:41 | 48.72699 | 9.41921 | 3572 ft | 152 kts | 256° |
| 2026-05-04 18:41 | 48.72410 | 9.40379 | 3381 ft | 149 kts | 256° |
| 2026-05-04 18:41 | 48.72127 | 9.38869 | 3177 ft | 148 kts | 258° |
| 2026-05-04 18:41 | 48.71847 | 9.37373 | 2971 ft | 147 kts | 257° |
| 2026-05-04 18:42 | 48.71567 | 9.35884 | 2781 ft | 148 kts | 258° |
| 2026-05-04 18:42 | 48.71290 | 9.34411 | 2584 ft | 147 kts | 257° |
| 2026-05-04 18:42 | 48.71013 | 9.32934 | 2388 ft | 145 kts | 258° |
| 2026-05-04 18:42 | 48.70738 | 9.31473 | 2186 ft | 145 kts | 258° |
| 2026-05-04 18:43 | 48.70463 | 9.30015 | 1993 ft | 144 kts | 257° |
| 2026-05-04 18:43 | 48.70191 | 9.28571 | 1802 ft | 142 kts | 258° |
| 2026-05-04 18:43 | 48.69920 | 9.27138 | 1608 ft | 141 kts | 258° |
| 2026-05-04 18:43 | 48.69655 | 9.25722 | 1427 ft | 141 kts | 258° |
| 2026-05-04 18:44 | 48.69382 | 9.24283 | 1248 ft | 142 kts | 258° |
| 2026-05-04 18:44 | 48.69216 | 9.23375 | 1209 ft | 126 kts | 254° |
| 2026-05-04 18:44 | 48.68976 | 9.22131 | 1252 ft | 54 kts | 253° |
| 2026-05-04 18:44 | 48.68945 | 9.21731 | 1247 ft | 36 kts | 276° |
| 2026-05-04 18:45 | 48.68986 | 9.21471 | 1256 ft | 19 kts | 285° |
| 2026-05-04 18:45 | 48.68992 | 9.21300 | 1265 ft | 16 kts | 255° |
| 2026-05-04 18:45 | 48.68964 | 9.21136 | 1265 ft | 16 kts | 255° |
| 2026-05-04 18:45 | 48.68933 | 9.20977 | 1269 ft | 16 kts | 251° |
| 2026-05-04 18:46 | 48.68902 | 9.20819 | 1273 ft | 15 kts | 255° |
| 2026-05-04 18:46 | 48.68873 | 9.20665 | 1277 ft | 15 kts | 253° |
| 2026-05-04 18:46 | 48.68843 | 9.20507 | 1281 ft | 16 kts | 254° |
| 2026-05-04 18:46 | 48.68812 | 9.20341 | 1283 ft | 16 kts | 254° |
| 2026-05-04 18:47 | 48.68781 | 9.20178 | 1287 ft | 16 kts | 254° |
| 2026-05-04 18:47 | 48.68761 | 9.20017 | 1291 ft | 15 kts | 285° |
| 2026-05-04 18:47 | 48.68820 | 9.19912 | 1297 ft | 12 kts | 319° |
| 2026-05-04 18:47 | 48.68852 | 9.19891 | 1300 ft | 0 kts | 341° |
| 2026-05-04 18:50 | 48.68868 | 9.19882 | 1301 ft | 7 kts | 340° |
| 2026-05-04 18:51 | 48.68881 | 9.19771 | 1306 ft | 16 kts | 253° |
| 2026-05-04 18:51 | 48.68849 | 9.19603 | 1310 ft | 17 kts | 255° |
| 2026-05-04 18:51 | 48.68827 | 9.19491 | 1312 ft | 10 kts | 254° |
| 2026-05-04 18:51 | 48.68850 | 9.19448 | 1314 ft | 5 kts | 340° |
| 2026-05-04 18:52 | 48.68877 | 9.19437 | 1315 ft | 4 kts | 343° |
| 2026-05-04 18:52 | 48.68897 | 9.19428 | 1315 ft | 0 kts | 344° |
| 2026-05-04 18:52 | 48.68898 | 9.19427 | 1315 ft | 0 kts | 344° |